sensor_id;sensor_type;location;lat;lon;timestamp;P1;durP1;ratioP1;P2;durP2;ratioP2
47796;SDS011;33558;50.922;14.068;2023-08-30T10:40:46;2.53;;;1.60;;
47796;SDS011;33558;50.922;14.068;2023-08-30T10:43:13;3.35;;;1.70;;
47796;SDS011;33558;50.922;14.068;2023-08-30T10:45:40;1.92;;;1.50;;
47796;SDS011;33558;50.922;14.068;2023-08-30T10:48:07;5.45;;;1.80;;
47796;SDS011;33558;50.922;14.068;2023-08-30T10:50:34;3.03;;;1.23;;
47796;SDS011;33558;50.922;14.068;2023-08-30T10:53:00;2.25;;;1.40;;
47796;SDS011;33558;50.922;14.068;2023-08-30T10:55:29;2.13;;;1.67;;
47796;SDS011;33558;50.922;14.068;2023-08-30T10:58:00;4.38;;;1.27;;
47796;SDS011;33558;50.922;14.068;2023-08-30T11:00:28;1.83;;;1.30;;
47796;SDS011;33558;50.922;14.068;2023-08-30T11:02:56;2.75;;;1.50;;
47796;SDS011;33558;50.922;14.068;2023-08-30T11:05:23;3.47;;;1.40;;
47796;SDS011;33558;50.922;14.068;2023-08-30T11:07:51;2.35;;;1.40;;
47796;SDS011;33558;50.922;14.068;2023-08-30T11:10:18;2.58;;;1.58;;
47796;SDS011;33558;50.922;14.068;2023-08-30T11:12:45;4.07;;;1.33;;
47796;SDS011;33558;50.922;14.068;2023-08-30T11:15:15;1.55;;;1.23;;
47796;SDS011;33558;50.922;14.068;2023-08-30T11:17:44;2.95;;;1.67;;
47796;SDS011;33558;50.922;14.068;2023-08-30T11:20:11;2.50;;;1.38;;
47796;SDS011;33558;50.922;14.068;2023-08-30T11:22:40;2.15;;;1.73;;
47796;SDS011;33558;50.922;14.068;2023-08-30T11:25:08;2.78;;;1.70;;
47796;SDS011;33558;50.922;14.068;2023-08-30T11:27:35;1.98;;;1.30;;
47796;SDS011;33558;50.922;14.068;2023-08-30T11:30:02;3.97;;;1.38;;
47796;SDS011;33558;50.922;14.068;2023-08-30T11:32:34;3.60;;;1.40;;
47796;SDS011;33558;50.922;14.068;2023-08-30T11:35:01;1.40;;;1.15;;
47796;SDS011;33558;50.922;14.068;2023-08-30T11:37:28;2.83;;;1.55;;
47796;SDS011;33558;50.922;14.068;2023-08-30T11:39:55;3.42;;;1.42;;
47796;SDS011;33558;50.922;14.068;2023-08-30T11:42:22;4.40;;;1.38;;
47796;SDS011;33558;50.922;14.068;2023-08-30T11:44:49;2.95;;;1.52;;
47796;SDS011;33558;50.922;14.068;2023-08-30T11:47:19;2.22;;;2.00;;
47796;SDS011;33558;50.922;14.068;2023-08-30T11:49:48;1.70;;;1.27;;
47796;SDS011;33558;50.922;14.068;2023-08-30T11:52:16;3.58;;;1.35;;
47796;SDS011;33558;50.922;14.068;2023-08-30T11:54:45;3.22;;;1.50;;
47796;SDS011;33558;50.922;14.068;2023-08-30T11:57:13;2.72;;;1.95;;
47796;SDS011;33558;50.922;14.068;2023-08-30T11:59:40;2.88;;;1.65;;
47796;SDS011;33558;50.922;14.068;2023-08-30T12:02:07;3.85;;;1.50;;
47796;SDS011;33558;50.922;14.068;2023-08-30T12:04:39;2.67;;;2.00;;
47796;SDS011;33558;50.922;14.068;2023-08-30T12:07:08;2.40;;;1.63;;
47796;SDS011;33558;50.922;14.068;2023-08-30T12:09:36;2.55;;;1.80;;
47796;SDS011;33558;50.922;14.068;2023-08-30T12:12:06;2.25;;;1.40;;
47796;SDS011;33558;50.922;14.068;2023-08-30T12:14:33;2.00;;;1.50;;
47796;SDS011;33558;50.922;14.068;2023-08-30T12:17:00;3.38;;;1.60;;
47796;SDS011;33558;50.922;14.068;2023-08-30T12:19:28;4.97;;;1.67;;
47796;SDS011;33558;50.922;14.068;2023-08-30T12:21:55;3.88;;;1.90;;
47796;SDS011;33558;50.922;14.068;2023-08-30T12:24:23;1.40;;;1.30;;
47796;SDS011;33558;50.922;14.068;2023-08-30T12:26:50;1.90;;;1.60;;
47796;SDS011;33558;50.922;14.068;2023-08-30T12:29:17;3.15;;;1.40;;
47796;SDS011;33558;50.922;14.068;2023-08-30T12:31:44;2.63;;;1.70;;
47796;SDS011;33558;50.922;14.068;2023-08-30T12:34:11;2.50;;;1.45;;
47796;SDS011;33558;50.922;14.068;2023-08-30T12:36:37;4.40;;;1.88;;
47796;SDS011;33558;50.922;14.068;2023-08-30T12:39:04;2.72;;;1.70;;
47796;SDS011;33558;50.922;14.068;2023-08-30T12:41:32;5.53;;;1.70;;
47796;SDS011;33558;50.922;14.068;2023-08-30T12:43:59;6.28;;;1.70;;
47796;SDS011;33558;50.922;14.068;2023-08-30T12:46:26;1.98;;;1.33;;
47796;SDS011;33558;50.922;14.068;2023-08-30T12:48:53;1.48;;;1.15;;
47796;SDS011;33558;50.922;14.068;2023-08-30T12:51:19;2.67;;;1.00;;
47796;SDS011;33558;50.922;14.068;2023-08-30T12:53:46;4.32;;;1.25;;
47796;SDS011;33558;50.922;14.068;2023-08-30T12:56:13;2.47;;;1.00;;
47796;SDS011;33558;50.922;14.068;2023-08-30T12:58:41;1.88;;;0.95;;
47796;SDS011;33558;50.922;14.068;2023-08-30T13:01:08;2.53;;;1.17;;
47796;SDS011;33558;50.922;14.068;2023-08-30T13:03:34;1.77;;;1.02;;
47796;SDS011;33558;50.922;14.068;2023-08-30T13:06:01;1.42;;;0.80;;
47796;SDS011;33558;50.922;14.068;2023-08-30T13:08:29;2.40;;;0.70;;
47796;SDS011;33558;50.922;14.068;2023-08-30T13:10:58;2.17;;;1.00;;
47796;SDS011;33558;50.922;14.068;2023-08-30T13:13:25;2.47;;;1.00;;
47796;SDS011;33558;50.922;14.068;2023-08-30T13:15:53;2.45;;;1.00;;
47796;SDS011;33558;50.922;14.068;2023-08-30T13:18:20;2.65;;;0.63;;
47796;SDS011;33558;50.922;14.068;2023-08-30T13:20:47;1.83;;;0.70;;
47796;SDS011;33558;50.922;14.068;2023-08-30T13:23:14;1.45;;;0.80;;
47796;SDS011;33558;50.922;14.068;2023-08-30T13:25:41;3.55;;;0.90;;
47796;SDS011;33558;50.922;14.068;2023-08-30T13:28:07;1.27;;;0.75;;
47796;SDS011;33558;50.922;14.068;2023-08-30T13:30:34;1.35;;;0.80;;
47796;SDS011;33558;50.922;14.068;2023-08-30T13:33:02;2.15;;;1.10;;
47796;SDS011;33558;50.922;14.068;2023-08-30T13:35:29;3.70;;;0.90;;
47796;SDS011;33558;50.922;14.068;2023-08-30T13:37:56;3.78;;;1.00;;
47796;SDS011;33558;50.922;14.068;2023-08-30T13:40:23;1.55;;;0.80;;
47796;SDS011;33558;50.922;14.068;2023-08-30T13:42:50;1.30;;;0.55;;
47796;SDS011;33558;50.922;14.068;2023-08-30T13:45:17;1.67;;;0.93;;
47796;SDS011;33558;50.922;14.068;2023-08-30T13:47:44;2.70;;;0.70;;
47796;SDS011;33558;50.922;14.068;2023-08-30T13:50:13;4.07;;;1.05;;
47796;SDS011;33558;50.922;14.068;2023-08-30T13:52:40;1.45;;;0.90;;
47796;SDS011;33558;50.922;14.068;2023-08-30T13:55:07;2.08;;;1.05;;
47796;SDS011;33558;50.922;14.068;2023-08-30T13:57:34;1.75;;;0.90;;
47796;SDS011;33558;50.922;14.068;2023-08-30T14:00:01;2.47;;;1.10;;
47796;SDS011;33558;50.922;14.068;2023-08-30T14:02:33;1.77;;;0.80;;
47796;SDS011;33558;50.922;14.068;2023-08-30T14:04:59;3.30;;;1.23;;
47796;SDS011;33558;50.922;14.068;2023-08-30T14:07:28;2.50;;;1.00;;
47796;SDS011;33558;50.922;14.068;2023-08-30T14:09:54;2.15;;;1.13;;
47796;SDS011;33558;50.922;14.068;2023-08-30T14:12:21;1.58;;;1.10;;
47796;SDS011;33558;50.922;14.068;2023-08-30T14:14:48;2.28;;;0.93;;
47796;SDS011;33558;50.922;14.068;2023-08-30T14:17:15;2.47;;;1.17;;
47796;SDS011;33558;50.922;14.068;2023-08-30T14:19:42;3.15;;;1.20;;
47796;SDS011;33558;50.922;14.068;2023-08-30T14:22:08;4.07;;;1.13;;
47796;SDS011;33558;50.922;14.068;2023-08-30T14:24:37;5.25;;;1.08;;
47796;SDS011;33558;50.922;14.068;2023-08-30T14:27:03;1.50;;;0.90;;
47796;SDS011;33558;50.922;14.068;2023-08-30T14:29:30;3.15;;;0.98;;
47796;SDS011;33558;50.922;14.068;2023-08-30T14:31:57;2.90;;;1.08;;
47796;SDS011;33558;50.922;14.068;2023-08-30T14:34:24;0.90;;;0.60;;
47796;SDS011;33558;50.922;14.068;2023-08-30T14:36:50;0.90;;;0.70;;
47796;SDS011;33558;50.922;14.068;2023-08-30T14:39:17;2.70;;;0.82;;
47796;SDS011;33558;50.922;14.068;2023-08-30T14:41:45;2.40;;;0.93;;
47796;SDS011;33558;50.922;14.068;2023-08-30T14:44:12;1.98;;;0.90;;
47796;SDS011;33558;50.922;14.068;2023-08-30T14:46:39;2.08;;;0.80;;
47796;SDS011;33558;50.922;14.068;2023-08-30T14:49:05;1.05;;;0.75;;
47796;SDS011;33558;50.922;14.068;2023-08-30T14:51:32;2.22;;;0.90;;
47796;SDS011;33558;50.922;14.068;2023-08-30T14:53:59;3.88;;;1.17;;
47796;SDS011;33558;50.922;14.068;2023-08-30T14:56:26;1.77;;;1.13;;
47796;SDS011;33558;50.922;14.068;2023-08-30T14:58:54;2.13;;;0.70;;
47796;SDS011;33558;50.922;14.068;2023-08-30T15:01:20;1.98;;;0.80;;
47796;SDS011;33558;50.922;14.068;2023-08-30T15:03:47;1.45;;;0.80;;
47796;SDS011;33558;50.922;14.068;2023-08-30T15:06:14;1.27;;;0.90;;
47796;SDS011;33558;50.922;14.068;2023-08-30T15:08:41;0.82;;;0.52;;
47796;SDS011;33558;50.922;14.068;2023-08-30T15:11:08;1.85;;;0.98;;
47796;SDS011;33558;50.922;14.068;2023-08-30T15:13:35;2.08;;;0.70;;
47796;SDS011;33558;50.922;14.068;2023-08-30T15:16:04;2.60;;;0.88;;
47796;SDS011;33558;50.922;14.068;2023-08-30T15:18:31;1.95;;;0.70;;
47796;SDS011;33558;50.922;14.068;2023-08-30T15:20:58;1.63;;;0.63;;
47796;SDS011;33558;50.922;14.068;2023-08-30T15:23:25;1.25;;;0.70;;
47796;SDS011;33558;50.922;14.068;2023-08-30T15:25:51;2.05;;;0.90;;
47796;SDS011;33558;50.922;14.068;2023-08-30T15:28:18;2.17;;;0.65;;
47796;SDS011;33558;50.922;14.068;2023-08-30T15:30:45;1.70;;;0.80;;
47796;SDS011;33558;50.922;14.068;2023-08-30T15:33:13;1.10;;;0.73;;
47796;SDS011;33558;50.922;14.068;2023-08-30T15:35:40;1.92;;;0.80;;
47796;SDS011;33558;50.922;14.068;2023-08-30T15:38:07;2.08;;;0.93;;
47796;SDS011;33558;50.922;14.068;2023-08-30T15:40:34;1.00;;;0.68;;
47796;SDS011;33558;50.922;14.068;2023-08-30T15:43:01;1.52;;;0.80;;
47796;SDS011;33558;50.922;14.068;2023-08-30T15:45:29;3.75;;;0.98;;
47796;SDS011;33558;50.922;14.068;2023-08-30T15:47:56;1.88;;;1.35;;
47796;SDS011;33558;50.922;14.068;2023-08-30T15:50:24;2.22;;;0.98;;
47796;SDS011;33558;50.922;14.068;2023-08-30T15:52:51;2.15;;;0.98;;
47796;SDS011;33558;50.922;14.068;2023-08-30T15:55:17;1.92;;;0.88;;
47796;SDS011;33558;50.922;14.068;2023-08-30T15:57:45;2.13;;;1.20;;
47796;SDS011;33558;50.922;14.068;2023-08-30T16:00:12;2.45;;;1.20;;
47796;SDS011;33558;50.922;14.068;2023-08-30T16:02:39;1.15;;;0.90;;
47796;SDS011;33558;50.922;14.068;2023-08-30T16:05:06;4.13;;;1.20;;
47796;SDS011;33558;50.922;14.068;2023-08-30T16:07:35;3.70;;;1.30;;
47796;SDS011;33558;50.922;14.068;2023-08-30T16:10:01;1.35;;;0.95;;
47796;SDS011;33558;50.922;14.068;2023-08-30T16:12:29;3.25;;;1.20;;
47796;SDS011;33558;50.922;14.068;2023-08-30T16:14:55;4.95;;;1.30;;
47796;SDS011;33558;50.922;14.068;2023-08-30T16:17:22;3.58;;;1.20;;
47796;SDS011;33558;50.922;14.068;2023-08-30T16:19:49;1.80;;;1.20;;
47796;SDS011;33558;50.922;14.068;2023-08-30T16:22:16;3.75;;;1.40;;
47796;SDS011;33558;50.922;14.068;2023-08-30T16:24:46;3.05;;;1.17;;
47796;SDS011;33558;50.922;14.068;2023-08-30T16:27:12;2.10;;;1.30;;
47796;SDS011;33558;50.922;14.068;2023-08-30T16:29:39;2.05;;;1.40;;
47796;SDS011;33558;50.922;14.068;2023-08-30T16:32:06;2.75;;;1.33;;
47796;SDS011;33558;50.922;14.068;2023-08-30T16:34:33;3.30;;;1.33;;
47796;SDS011;33558;50.922;14.068;2023-08-30T16:36:59;1.85;;;1.25;;
47796;SDS011;33558;50.922;14.068;2023-08-30T16:39:26;1.52;;;1.30;;
47796;SDS011;33558;50.922;14.068;2023-08-30T16:41:54;2.92;;;1.25;;
47796;SDS011;33558;50.922;14.068;2023-08-30T16:44:22;1.90;;;1.40;;
47796;SDS011;33558;50.922;14.068;2023-08-30T16:46:49;2.92;;;1.60;;
47796;SDS011;33558;50.922;14.068;2023-08-30T16:49:16;2.45;;;1.40;;
47796;SDS011;33558;50.922;14.068;2023-08-30T16:51:42;4.28;;;1.65;;
47796;SDS011;33558;50.922;14.068;2023-08-30T16:54:09;1.75;;;1.30;;
47796;SDS011;33558;50.922;14.068;2023-08-30T16:56:38;8.10;;;1.88;;
47796;SDS011;33558;50.922;14.068;2023-08-30T16:59:06;2.63;;;1.80;;
47796;SDS011;33558;50.922;14.068;2023-08-30T17:01:33;3.10;;;1.63;;
47796;SDS011;33558;50.922;14.068;2023-08-30T17:04:00;1.77;;;1.30;;
47796;SDS011;33558;50.922;14.068;2023-08-30T17:06:26;6.90;;;1.83;;
47796;SDS011;33558;50.922;14.068;2023-08-30T17:08:53;3.55;;;1.70;;
47796;SDS011;33558;50.922;14.068;2023-08-30T17:11:20;2.47;;;1.73;;
47796;SDS011;33558;50.922;14.068;2023-08-30T17:13:47;3.03;;;1.77;;
47796;SDS011;33558;50.922;14.068;2023-08-30T17:16:15;2.15;;;1.50;;
47796;SDS011;33558;50.922;14.068;2023-08-30T17:18:42;2.38;;;1.50;;
47796;SDS011;33558;50.922;14.068;2023-08-30T17:21:09;2.28;;;1.70;;
47796;SDS011;33558;50.922;14.068;2023-08-30T17:23:36;7.25;;;2.20;;
47796;SDS011;33558;50.922;14.068;2023-08-30T17:30:18;2.42;;;1.60;;
47796;SDS011;33558;50.922;14.068;2023-08-30T17:32:47;2.92;;;2.08;;
47796;SDS011;33558;50.922;14.068;2023-08-30T17:35:13;4.07;;;2.05;;
